createdAt,value
2018-09-11T00:02:25.558Z,11.83
2018-09-11T00:04:54.167Z,9.83
2018-09-11T00:07:22.879Z,9.40
2018-09-11T00:09:51.442Z,13.70
2018-09-11T00:12:20.026Z,6.10
2018-09-11T00:14:49.043Z,7.03
2018-09-11T00:17:17.826Z,10.30
2018-09-11T00:19:46.422Z,12.23
2018-09-11T00:22:15.051Z,11.40
2018-09-11T00:24:43.746Z,9.37
2018-09-11T00:27:12.414Z,11.03
2018-09-11T00:29:41.007Z,9.30
2018-09-11T00:32:10.046Z,7.43
2018-09-11T00:34:38.631Z,12.87
2018-09-11T00:37:07.255Z,6.80
2018-09-11T00:39:35.846Z,9.27
2018-09-11T00:42:04.558Z,9.07
2018-09-11T00:44:33.279Z,7.37
2018-09-11T00:47:01.882Z,6.57
2018-09-11T00:49:31.151Z,12.57
2018-09-11T00:51:59.830Z,7.53
2018-09-11T00:54:28.558Z,14.00
2018-09-11T00:56:57.226Z,13.40
2018-09-11T00:59:25.783Z,7.97
2018-09-11T01:01:54.575Z,10.83
2018-09-11T01:04:23.491Z,9.10
2018-09-11T01:06:52.211Z,9.60
2018-09-11T01:09:20.827Z,9.77
2018-09-11T01:11:49.422Z,11.47
2018-09-11T01:14:18.014Z,11.13
2018-09-11T01:16:46.678Z,6.00
2018-09-11T01:19:15.258Z,9.50
2018-09-11T01:21:43.883Z,13.43
2018-09-11T01:24:12.519Z,11.17
2018-09-11T01:26:41.097Z,12.90
2018-09-11T01:29:16.578Z,11.23
2018-09-11T01:31:45.211Z,11.17
2018-09-11T01:34:13.783Z,10.03
2018-09-11T01:36:42.462Z,8.10
2018-09-11T01:39:13.281Z,12.90
2018-09-11T01:41:42.149Z,13.00
2018-09-11T01:44:11.110Z,13.53
2018-09-11T01:46:39.694Z,10.90
2018-09-11T01:49:08.323Z,8.70
2018-09-11T01:51:36.947Z,18.53
2018-09-11T01:54:05.571Z,11.50
2018-09-11T01:56:34.580Z,12.83
2018-09-11T01:59:03.157Z,8.17
2018-09-11T02:01:31.710Z,9.73
2018-09-11T02:04:00.331Z,10.83
2018-09-11T02:06:28.915Z,9.23
2018-09-11T02:08:57.518Z,9.30
2018-09-11T02:11:26.179Z,14.73
2018-09-11T02:13:54.793Z,12.10
2018-09-11T02:16:23.562Z,11.90
2018-09-11T02:18:52.194Z,9.00
2018-09-11T02:21:20.814Z,13.20
2018-09-11T02:23:49.442Z,13.77
2018-09-11T02:26:18.007Z,10.60
2018-09-11T02:28:46.575Z,10.93
2018-09-11T02:31:21.654Z,9.83
2018-09-11T02:33:50.306Z,11.43
2018-09-11T02:36:18.899Z,10.00
2018-09-11T02:38:47.535Z,11.97
2018-09-11T02:41:16.310Z,15.57
2018-09-11T02:43:44.875Z,10.70
2018-09-11T02:46:13.506Z,16.50
2018-09-11T02:48:42.081Z,13.03
2018-09-11T02:51:10.659Z,11.37
2018-09-11T02:53:39.262Z,10.97
2018-09-11T02:56:07.907Z,14.13
2018-09-11T02:58:36.914Z,10.37
2018-09-11T03:01:05.578Z,11.03
2018-09-11T03:03:34.166Z,10.77
2018-09-11T03:06:03.172Z,13.10
2018-09-11T03:08:31.730Z,13.47
2018-09-11T03:11:00.339Z,10.47
2018-09-11T03:13:28.935Z,14.40
2018-09-11T03:15:57.610Z,16.03
2018-09-11T03:18:26.206Z,10.93
2018-09-11T03:20:54.803Z,10.30
2018-09-11T03:23:23.414Z,11.63
2018-09-11T03:25:51.975Z,11.17
2018-09-11T03:28:20.618Z,15.00
2018-09-11T03:30:49.262Z,11.87
2018-09-11T03:33:17.884Z,10.07
2018-09-11T03:35:46.483Z,10.93
2018-09-11T03:38:15.699Z,9.00
2018-09-11T03:40:44.462Z,9.90
2018-09-11T03:43:13.208Z,10.77
2018-09-11T03:45:47.935Z,9.20
2018-09-11T03:48:18.414Z,10.13
2018-09-11T03:50:48.554Z,9.40
2018-09-11T03:53:17.459Z,12.97
2018-09-11T03:55:46.705Z,8.93
2018-09-11T03:58:16.215Z,10.20
2018-09-11T04:00:45.202Z,9.33
2018-09-11T04:03:13.922Z,8.17
2018-09-11T04:05:42.518Z,11.67
2018-09-11T04:08:11.498Z,8.50
2018-09-11T04:10:40.087Z,9.43
2018-09-11T04:13:08.659Z,11.50
2018-09-11T04:15:37.494Z,10.83
2018-09-11T04:18:06.106Z,8.40
2018-09-11T04:20:34.723Z,8.97
2018-09-11T04:23:03.584Z,10.63
2018-09-11T04:25:32.229Z,12.77
2018-09-11T04:28:00.791Z,8.00
2018-09-11T04:30:29.770Z,8.77
2018-09-11T04:32:58.375Z,11.50
2018-09-11T04:35:27.073Z,10.77
2018-09-11T04:37:55.758Z,8.03
2018-09-11T04:40:24.375Z,11.07
2018-09-11T04:42:53.201Z,9.30
2018-09-11T04:45:21.719Z,7.57
2018-09-11T04:47:50.314Z,9.30
2018-09-11T04:50:19.327Z,7.07
2018-09-11T04:52:48.042Z,8.10
2018-09-11T04:55:16.630Z,10.17
2018-09-11T04:57:45.247Z,14.77
2018-09-11T05:00:13.878Z,8.00
2018-09-11T05:02:42.546Z,8.63
2018-09-11T05:05:11.147Z,9.93
2018-09-11T05:07:40.247Z,8.70
2018-09-11T05:10:08.885Z,8.83
2018-09-11T05:12:37.759Z,10.27
2018-09-11T05:15:06.464Z,7.27
2018-09-11T05:17:35.062Z,8.80
2018-09-11T05:20:03.698Z,9.70
2018-09-11T05:22:32.282Z,9.60
2018-09-11T05:25:00.931Z,12.33
2018-09-11T05:27:29.560Z,14.13
2018-09-11T05:29:58.230Z,8.40
2018-09-11T05:32:26.910Z,8.43
2018-09-11T05:34:55.514Z,8.93
2018-09-11T05:37:24.088Z,9.83
2018-09-11T05:39:53.540Z,10.10
2018-09-11T05:42:22.181Z,10.87
2018-09-11T05:44:50.751Z,8.40
2018-09-11T05:47:19.454Z,16.37
2018-09-11T05:49:47.986Z,9.67
2018-09-11T05:52:16.605Z,11.30
2018-09-11T05:54:45.269Z,11.00
2018-09-11T05:57:13.865Z,8.47
2018-09-11T05:59:42.491Z,7.50
2018-09-11T06:02:11.127Z,8.80
2018-09-11T06:04:39.710Z,13.50
2018-09-11T06:07:08.315Z,9.40
2018-09-11T06:09:36.910Z,8.47
2018-09-11T06:12:05.507Z,11.37
2018-09-11T06:14:34.114Z,10.10
2018-09-11T06:17:02.866Z,8.30
2018-09-11T06:19:31.474Z,12.93
2018-09-11T06:22:00.068Z,10.97
2018-09-11T06:24:31.682Z,10.97
2018-09-11T06:27:00.258Z,9.97
2018-09-11T06:29:29.319Z,9.30
2018-09-11T06:31:58.014Z,7.63
2018-09-11T06:34:26.610Z,11.37
2018-09-11T06:36:55.328Z,8.50
2018-09-11T06:39:23.842Z,9.00
2018-09-11T06:41:52.416Z,9.00
2018-09-11T06:44:21.153Z,16.73
2018-09-11T06:46:49.977Z,11.50
2018-09-11T06:49:18.543Z,9.93
2018-09-11T06:51:47.179Z,11.80
2018-09-11T06:54:15.895Z,10.03
2018-09-11T06:56:44.482Z,11.70
2018-09-11T06:59:13.123Z,12.60
2018-09-11T07:01:41.733Z,10.57
2018-09-11T07:04:10.387Z,13.50
2018-09-11T07:06:39.023Z,12.40
2018-09-11T07:09:09.564Z,12.23
2018-09-11T07:11:38.230Z,17.13
2018-09-11T07:14:06.920Z,12.70
2018-09-11T07:16:35.494Z,10.37
2018-09-11T07:19:04.094Z,11.67
2018-09-11T07:21:32.699Z,15.07
2018-09-11T07:24:01.263Z,12.00
2018-09-11T07:26:29.874Z,10.40
2018-09-11T07:28:58.494Z,10.70
2018-09-11T07:31:27.093Z,11.30
2018-09-11T07:33:55.724Z,12.33
2018-09-11T07:36:24.450Z,10.57
2018-09-11T07:38:52.927Z,10.03
2018-09-11T07:41:28.479Z,10.70
2018-09-11T07:43:57.085Z,9.73
2018-09-11T07:46:25.737Z,11.00
2018-09-11T07:48:54.335Z,14.80
2018-09-11T07:51:22.924Z,9.57
2018-09-11T07:53:51.567Z,8.40
2018-09-11T07:56:20.138Z,9.13
2018-09-11T07:58:48.708Z,8.10
2018-09-11T08:01:17.458Z,7.90
2018-09-11T08:03:45.998Z,7.50
2018-09-11T08:06:14.614Z,7.40
2018-09-11T08:08:43.273Z,8.80
2018-09-11T08:11:11.886Z,11.43
2018-09-11T08:13:40.519Z,9.17
2018-09-11T08:16:09.147Z,6.00
2018-09-11T08:18:37.879Z,7.63
2018-09-11T08:21:06.875Z,7.63
2018-09-11T08:23:35.743Z,6.97
2018-09-11T08:26:04.390Z,5.93
2018-09-11T08:28:33.026Z,8.90
2018-09-11T08:31:01.638Z,6.97
2018-09-11T08:33:30.442Z,7.73
2018-09-11T08:35:59.095Z,8.43
2018-09-11T08:38:27.811Z,11.00
2018-09-11T08:40:56.433Z,8.77
2018-09-11T08:43:24.995Z,9.77
2018-09-11T08:45:53.606Z,13.43
2018-09-11T08:48:22.163Z,7.30
2018-09-11T08:50:50.796Z,8.30
2018-09-11T08:53:19.439Z,8.00
2018-09-11T08:55:48.115Z,7.60
2018-09-11T08:58:16.676Z,7.50
2018-09-11T09:00:45.251Z,8.40
2018-09-11T09:03:13.891Z,8.83
2018-09-11T09:05:42.543Z,9.43
2018-09-11T09:08:11.155Z,8.50
2018-09-11T09:10:39.719Z,8.47
2018-09-11T09:13:08.363Z,9.80
2018-09-11T09:15:36.985Z,9.13
2018-09-11T09:18:05.882Z,8.33
2018-09-11T09:20:34.443Z,9.00
2018-09-11T09:23:03.581Z,7.90
2018-09-11T09:25:32.193Z,7.30
2018-09-11T09:28:00.730Z,8.97
2018-09-11T09:30:29.287Z,7.83
2018-09-11T09:32:58.830Z,11.53
2018-09-11T09:35:27.461Z,8.17
2018-09-11T09:37:56.072Z,7.50
2018-09-11T09:40:24.758Z,7.20
2018-09-11T09:42:53.350Z,7.53
2018-09-11T09:45:21.970Z,7.30
2018-09-11T09:47:50.574Z,7.30
2018-09-11T09:50:19.250Z,7.23
2018-09-11T09:52:47.871Z,7.63
2018-09-11T09:55:16.428Z,9.20
2018-09-11T09:57:45.030Z,8.80
2018-09-11T10:00:17.850Z,8.23
2018-09-11T10:02:46.508Z,6.77
2018-09-11T10:05:15.126Z,8.97
2018-09-11T10:07:43.722Z,7.23
2018-09-11T10:10:12.271Z,8.33
2018-09-11T10:12:40.890Z,8.13
2018-09-11T10:15:09.491Z,7.27
2018-09-11T10:17:38.155Z,8.10
2018-09-11T10:20:07.144Z,10.90
2018-09-11T10:22:35.730Z,8.70
2018-09-11T10:25:04.478Z,7.90
2018-09-11T10:27:33.220Z,8.33
2018-09-11T10:30:01.824Z,7.47
2018-09-11T10:32:30.412Z,7.60
2018-09-11T10:34:59.018Z,7.10
2018-09-11T10:37:27.698Z,8.00
2018-09-11T10:39:56.351Z,7.27
2018-09-11T10:42:24.987Z,7.97
2018-09-11T10:44:53.626Z,7.57
2018-09-11T10:47:22.199Z,6.20
2018-09-11T10:49:50.799Z,8.73
2018-09-11T10:52:19.391Z,8.53
2018-09-11T10:54:47.978Z,7.43
2018-09-11T10:57:16.546Z,8.47
2018-09-11T10:59:45.106Z,6.50
2018-09-11T11:02:13.695Z,7.40
2018-09-11T11:04:43.401Z,7.23
2018-09-11T11:07:12.059Z,7.17
2018-09-11T11:09:40.750Z,6.93
2018-09-11T11:12:09.327Z,6.13
2018-09-11T11:14:37.958Z,6.80
2018-09-11T11:17:06.613Z,7.10
2018-09-11T11:19:35.271Z,5.50
2018-09-11T11:22:03.898Z,6.63
2018-09-11T11:24:32.602Z,7.03
2018-09-11T11:27:01.723Z,5.67
2018-09-11T11:29:30.218Z,5.43
2018-09-11T11:31:58.821Z,5.67
2018-09-11T11:34:27.487Z,7.87
2018-09-11T11:36:56.631Z,5.33
2018-09-11T11:39:25.099Z,4.37
2018-09-11T11:41:53.682Z,7.70
2018-09-11T11:44:22.345Z,4.90
2018-09-11T11:46:50.890Z,9.20
2018-09-11T11:49:19.839Z,5.97
2018-09-11T11:51:48.492Z,5.10
2018-09-11T11:54:17.095Z,6.33
2018-09-11T11:56:45.726Z,5.93
2018-09-11T11:59:14.338Z,6.53
2018-09-11T12:01:42.979Z,3.60
2018-09-11T12:04:11.550Z,4.07
2018-09-11T12:06:40.198Z,6.50
2018-09-11T12:09:10.496Z,4.77
2018-09-11T12:11:39.175Z,5.97
2018-09-11T12:14:07.826Z,10.40
2018-09-11T12:16:36.403Z,7.57
2018-09-11T12:19:05.067Z,6.67
2018-09-11T12:21:33.687Z,4.10
2018-09-11T12:24:02.311Z,4.20
2018-09-11T12:26:30.933Z,6.03
2018-09-11T12:28:59.507Z,5.77
2018-09-11T12:31:28.112Z,4.33
2018-09-11T12:33:56.694Z,5.50
2018-09-11T12:36:25.286Z,4.83
2018-09-11T12:38:53.926Z,7.20
2018-09-11T12:41:22.562Z,4.83
2018-09-11T12:43:51.158Z,6.93
2018-09-11T12:46:20.023Z,8.37
2018-09-11T12:48:48.523Z,7.00
2018-09-11T12:51:17.114Z,4.00
2018-09-11T12:53:45.795Z,3.73
2018-09-11T12:56:14.375Z,6.13
2018-09-11T12:58:42.942Z,4.47
2018-09-11T13:01:11.587Z,5.73
2018-09-11T13:03:40.202Z,6.80
2018-09-11T13:06:08.914Z,3.93
2018-09-11T13:08:37.565Z,4.20
2018-09-11T13:11:06.159Z,4.40
2018-09-11T13:13:34.734Z,8.27
2018-09-11T13:16:03.366Z,4.57
2018-09-11T13:18:31.947Z,4.37
2018-09-11T13:21:00.608Z,4.30
2018-09-11T13:23:29.208Z,6.30
2018-09-11T13:25:57.813Z,7.03
2018-09-11T13:28:26.365Z,3.70
2018-09-11T13:30:54.946Z,4.30
2018-09-11T13:33:23.579Z,3.73
2018-09-11T13:35:52.211Z,4.13
2018-09-11T13:38:20.806Z,5.43
2018-09-11T13:40:49.338Z,5.90
2018-09-11T13:43:17.980Z,5.23
2018-09-11T13:45:46.598Z,3.43
2018-09-11T13:48:15.579Z,4.27
2018-09-11T13:50:44.305Z,6.90
2018-09-11T13:53:12.911Z,4.63
2018-09-11T13:55:41.609Z,8.13
2018-09-11T13:58:10.236Z,6.00
2018-09-11T14:00:38.875Z,6.17
2018-09-11T14:03:07.569Z,5.57
2018-09-11T14:05:36.209Z,5.60
2018-09-11T14:08:04.807Z,4.10
2018-09-11T14:10:33.434Z,4.60
2018-09-11T14:13:02.127Z,3.50
2018-09-11T14:15:30.690Z,6.97
2018-09-11T14:17:59.374Z,6.00
2018-09-11T14:20:28.023Z,4.33
2018-09-11T14:22:56.630Z,5.13
2018-09-11T14:25:25.287Z,3.97
2018-09-11T14:27:53.838Z,5.43
2018-09-11T14:30:22.614Z,5.97
2018-09-11T14:32:51.198Z,5.17
2018-09-11T14:35:19.885Z,3.70
2018-09-11T14:37:48.458Z,4.40
2018-09-11T14:40:17.050Z,4.30
2018-09-11T14:42:45.686Z,5.10
2018-09-11T14:45:14.227Z,7.30
2018-09-11T14:47:44.051Z,7.17
2018-09-11T14:50:14.287Z,6.37
2018-09-11T14:52:43.024Z,4.70
2018-09-11T14:55:12.158Z,5.03
2018-09-11T14:57:40.792Z,3.90
2018-09-11T15:00:09.416Z,7.87
2018-09-11T15:02:38.071Z,4.87
2018-09-11T15:05:07.003Z,7.73
2018-09-11T15:07:35.638Z,3.43
2018-09-11T15:10:04.263Z,5.37
2018-09-11T15:12:32.854Z,4.30
2018-09-11T15:15:01.425Z,3.83
2018-09-11T15:17:29.967Z,6.53
2018-09-11T15:19:58.581Z,4.60
2018-09-11T15:22:27.213Z,5.23
2018-09-11T15:24:55.790Z,3.97
2018-09-11T15:27:24.379Z,3.73
2018-09-11T15:29:52.957Z,5.57
2018-09-11T15:32:21.542Z,6.87
2018-09-11T15:34:50.154Z,3.70
2018-09-11T15:37:18.755Z,4.90
2018-09-11T15:39:47.390Z,3.83
2018-09-11T15:42:15.983Z,4.93
2018-09-11T15:44:44.671Z,3.80
2018-09-11T15:47:13.292Z,5.00
2018-09-11T15:49:41.890Z,4.57
2018-09-11T15:52:10.539Z,3.37
2018-09-11T15:54:39.228Z,3.10
2018-09-11T15:57:09.459Z,3.93
2018-09-11T15:59:38.122Z,3.23
2018-09-11T16:02:06.790Z,6.13
2018-09-11T16:04:35.442Z,5.57
2018-09-11T16:07:04.175Z,4.97
2018-09-11T16:09:32.790Z,4.37
2018-09-11T16:12:01.399Z,3.60
2018-09-11T16:14:30.007Z,2.60
2018-09-11T16:16:58.620Z,6.10
2018-09-11T16:19:27.219Z,7.93
2018-09-11T16:21:55.864Z,3.00
2018-09-11T16:24:24.423Z,4.97
2018-09-11T16:35:19.095Z,4.60
2018-09-11T16:37:47.716Z,4.33
2018-09-11T16:40:16.375Z,3.00
2018-09-11T16:42:45.188Z,4.93
2018-09-11T16:45:13.805Z,3.57
2018-09-11T16:47:42.435Z,6.80
2018-09-11T16:50:12.239Z,2.97
2018-09-11T16:52:42.017Z,2.60
2018-09-11T16:55:10.731Z,4.20
2018-09-11T16:57:39.407Z,3.23
2018-09-11T17:00:08.082Z,9.40
2018-09-11T17:02:36.884Z,4.70
2018-09-11T17:05:05.416Z,5.83
2018-09-11T17:07:34.038Z,5.90
2018-09-11T17:10:02.659Z,6.70
2018-09-11T17:12:31.639Z,3.33
2018-09-11T17:15:00.290Z,3.93
2018-09-11T17:17:28.983Z,3.67
2018-09-11T17:19:57.612Z,2.93
2018-09-11T17:22:26.314Z,6.07
2018-09-11T17:24:54.978Z,4.47
2018-09-11T17:27:23.620Z,3.10
2018-09-11T17:29:52.276Z,5.23
2018-09-11T17:32:20.961Z,3.77
2018-09-11T17:34:49.571Z,4.97
2018-09-11T17:37:18.180Z,3.80
2018-09-11T17:39:46.824Z,5.10
2018-09-11T17:42:15.508Z,2.80
2018-09-11T17:44:44.167Z,5.27
2018-09-11T17:47:12.779Z,2.90
2018-09-11T17:49:41.404Z,5.60
2018-09-11T17:52:10.009Z,3.97
2018-09-11T17:54:38.652Z,3.80
2018-09-11T17:57:07.245Z,2.93
2018-09-11T17:59:35.879Z,5.40
2018-09-11T18:02:04.566Z,3.70
2018-09-11T18:04:33.198Z,3.40
2018-09-11T18:07:01.832Z,4.30
2018-09-11T18:09:30.463Z,3.90
2018-09-11T18:11:59.108Z,3.67
2018-09-11T18:14:27.716Z,8.97
2018-09-11T18:16:56.324Z,4.40
2018-09-11T18:19:24.951Z,2.70
2018-09-11T18:21:53.564Z,4.47
2018-09-11T18:24:22.456Z,3.90
2018-09-11T18:26:51.099Z,5.50
2018-09-11T18:29:19.727Z,3.43
2018-09-11T18:31:48.339Z,5.03
2018-09-11T18:34:17.964Z,6.17
2018-09-11T18:36:46.643Z,7.00
2018-09-11T18:39:15.511Z,4.80
2018-09-11T18:41:44.125Z,7.63
2018-09-11T18:44:12.735Z,3.20
2018-09-11T18:46:41.400Z,6.30
2018-09-11T18:49:10.543Z,4.00
2018-09-11T18:51:39.634Z,4.20
2018-09-11T18:54:08.384Z,5.33
2018-09-11T18:56:37.098Z,4.00
2018-09-11T18:59:06.057Z,3.53
2018-09-11T19:01:34.705Z,7.20
2018-09-11T19:04:03.503Z,3.80
2018-09-11T19:06:32.363Z,3.70
2018-09-11T19:09:01.727Z,3.07
2018-09-11T19:11:30.472Z,3.40
2018-09-11T19:13:59.156Z,6.70
2018-09-11T19:16:27.787Z,4.60
2018-09-11T19:18:56.458Z,3.93
2018-09-11T19:21:25.777Z,7.00
2018-09-11T19:23:54.722Z,3.90
2018-09-11T19:26:23.692Z,7.03
2018-09-11T19:28:52.424Z,4.57
2018-09-11T19:31:21.581Z,5.60
2018-09-11T19:33:50.324Z,3.57
2018-09-11T19:36:18.988Z,3.83
2018-09-11T19:38:47.632Z,4.30
2018-09-11T19:41:16.228Z,4.53
2018-09-11T19:43:45.201Z,3.10
2018-09-11T19:46:13.832Z,4.97
2018-09-11T19:48:42.475Z,4.30
2018-09-11T19:51:11.195Z,4.17
2018-09-11T19:53:40.275Z,4.40
2018-09-11T19:56:09.071Z,10.23
2018-09-11T19:58:37.714Z,5.00
2018-09-11T20:01:06.677Z,5.03
2018-09-11T20:03:35.343Z,5.27
2018-09-11T20:06:03.995Z,5.10
2018-09-11T20:08:32.620Z,4.63
2018-09-11T20:11:01.291Z,6.73
2018-09-11T20:13:29.888Z,5.30
2018-09-11T20:15:58.550Z,7.67
2018-09-11T20:18:27.168Z,4.30
2018-09-11T20:20:55.795Z,6.40
2018-09-11T20:23:24.534Z,5.20
2018-09-11T20:25:53.133Z,5.80
2018-09-11T20:28:22.160Z,4.60
2018-09-11T20:30:50.752Z,5.03
2018-09-11T20:33:19.364Z,5.83
2018-09-11T20:35:48.002Z,5.33
2018-09-11T20:38:16.679Z,5.10
2018-09-11T20:40:45.308Z,5.47
2018-09-11T20:43:13.955Z,4.77
2018-09-11T20:45:42.860Z,5.60
2018-09-11T20:48:11.442Z,4.50
2018-09-11T20:50:40.036Z,4.90
2018-09-11T20:53:08.682Z,6.13
2018-09-11T20:55:37.311Z,7.13
2018-09-11T20:58:05.948Z,5.20
2018-09-11T21:00:34.587Z,6.47
2018-09-11T21:03:03.275Z,5.17
2018-09-11T21:05:31.979Z,7.27
2018-09-11T21:08:00.627Z,7.00
2018-09-11T21:10:29.251Z,4.97
2018-09-11T21:12:57.874Z,5.17
2018-09-11T21:15:26.506Z,5.93
2018-09-11T21:17:55.136Z,8.33
2018-09-11T21:20:23.771Z,7.10
2018-09-11T21:22:52.500Z,7.87
2018-09-11T21:25:21.134Z,6.67
2018-09-11T21:27:49.788Z,7.50
2018-09-11T21:30:18.427Z,12.70
2018-09-11T21:32:47.055Z,6.97
2018-09-11T21:35:15.675Z,6.40
2018-09-11T21:37:44.278Z,10.57
2018-09-11T21:40:12.904Z,5.67
2018-09-11T21:42:41.507Z,11.83
2018-09-11T21:45:10.169Z,10.20
2018-09-11T21:47:38.812Z,8.73
2018-09-11T21:50:07.528Z,9.97
2018-09-11T21:52:36.216Z,8.70
2018-09-11T21:55:04.893Z,8.13
2018-09-11T21:57:33.555Z,9.00
2018-09-11T22:00:02.265Z,11.73
2018-09-11T22:02:30.899Z,10.03
2018-09-11T22:04:59.555Z,8.00
2018-09-11T22:07:28.483Z,9.50
2018-09-11T22:09:57.088Z,6.83
2018-09-11T22:12:25.682Z,11.73
2018-09-11T22:14:54.372Z,10.47
2018-09-11T22:17:23.051Z,9.23
2018-09-11T22:19:51.713Z,9.60
2018-09-11T22:22:20.351Z,11.87
2018-09-11T22:24:49.039Z,8.17
2018-09-11T22:27:17.615Z,7.47
2018-09-11T22:29:46.219Z,10.77
2018-09-11T22:32:14.819Z,9.50
2018-09-11T22:34:43.447Z,12.00
2018-09-11T22:37:12.116Z,9.53
2018-09-11T22:39:40.771Z,10.07
2018-09-11T22:42:09.367Z,14.43
2018-09-11T22:44:38.000Z,10.83
2018-09-11T22:47:06.669Z,12.63
2018-09-11T22:49:35.347Z,10.37
2018-09-11T22:52:03.995Z,8.33
2018-09-11T22:54:32.618Z,11.47
2018-09-11T22:57:01.351Z,8.30
2018-09-11T22:59:30.007Z,9.60
2018-09-11T23:01:58.739Z,8.77
2018-09-11T23:04:27.376Z,9.83
2018-09-11T23:06:56.032Z,8.80
2018-09-11T23:09:24.664Z,12.77
2018-09-11T23:11:53.272Z,9.17
2018-09-11T23:14:21.915Z,10.97
2018-09-11T23:16:50.598Z,12.83
2018-09-11T23:19:19.252Z,11.17
2018-09-11T23:21:47.910Z,10.00
2018-09-11T23:24:16.511Z,13.30
2018-09-11T23:26:45.171Z,14.13
2018-09-11T23:29:13.823Z,16.33
2018-09-11T23:31:42.487Z,15.37
2018-09-11T23:34:11.115Z,16.90
2018-09-11T23:36:39.804Z,20.00
2018-09-11T23:39:08.875Z,19.30
2018-09-11T23:41:37.912Z,14.83
2018-09-11T23:44:07.083Z,13.07
2018-09-11T23:46:36.111Z,21.10
2018-09-11T23:49:04.764Z,13.13
2018-09-11T23:51:33.364Z,19.43
2018-09-11T23:54:02.039Z,15.87
2018-09-11T23:56:30.743Z,14.43
2018-09-11T23:58:59.385Z,20.17
